Terminal Aerodrome Forecast
Issued by NWS Blacksburg, VA

Home | Current Version | Previous Version | Text Only | Print | Product List | Glossary On
Versions: 1 2 3 4 5 6 7 8 9 10 11 12 13 14 15 16 17 18 19 20 21 22 23 24 25 26
000
FTUS41 KRNK 181726
TAFROA
TAF
KROA 181726Z 1818/1918 15006KT P6SM BKN045
     FM190000 14004KT P6SM SCT050 SCT100
     FM190700 10003KT P6SM SCT015 BKN035
     FM191000 09005KT 5SM -DZ BR BKN007 OVC015
     FM191400 08008KT P6SM SCT025 OVC050=

USA.gov is the U.S. government's official web portal to all federal, state and local government web resources and services.